Terminal Aerodrome Forecast
Issued by NWS

Home | Current Version | Previous Version | Text Only | Print | Product List | Glossary On
Versions: 1 2 3 4 5 6 7 8 9 10 11 12 13 14 15 16 17 18 19 20 21
000
FTUS44 KCRP 180528
TAFALI
TAF
KALI 180528Z 1806/1906 14005KT P6SM SCT004
      TEMPO 1809/1813 3SM BR BKN005
     FM181500 09006KT P6SM VCTS BKN020CB OVC150 PROB30 1816/1818 5SM
      TSRA OVC015CB
     FM182200 09010KT P6SM SCT020
     FM190300 12008KT P6SM BKN015=

USA.gov is the U.S. government's official web portal to all federal, state and local government web resources and services.